BGGHCYFB

Guest
Details From BGGH - Nuuk
To CYFB - Iqaluit
Flight Number -
Tags Generated
Created
Modified
Stats Distance 445 nm / 825 km
Max Altitude 0 ft / 0 m
Waypoints 3
Social Downloads 1
Likes 0
Share VATSIM

Download

Looking for another format? Having issues loading an existing format? Contact us
Advertisement - Login to hide

Notes

Generated

Route

BGGH YFB CYFB

ID Type Via Altitude Latitude Longitude Leg Dist Tot Dist Heading (true) Name
O BGGH APT - 0 ft / 0 m 64.18897˚ -51.67955˚ - 0 nm - Nuuk
YFB VOR - 0 ft / 0 m 63.74167˚ -68.47333˚ 442 nm 442 nm 274° / 259° FROBAY VOR
O CYFB APT - 0 ft / 0 m 63.76497˚ -68.57398˚ 3 nm 445 nm 298° / 298° -

Altitude Profile

Advertisement - Login to hide

Weather


0- 5 10 15 20 25 30 35+ Temperature / ° C

Clouds and Precipitation
Forecast for 2017-12-17 00:00 UTC. Updated 2 hours ago

Ground ~20,000 ft ~40,000 ft Winds

BGGH

Details ICAO BGGH (GOH)
Name Nuuk
Region Greenland
Timezone America/Godthab (UTC-3.0)
Stats Elevation 283 ft / 86 m (AMSL)
Location 64.193021° -51.676454°
Runways 1
Magnetic Variation 27.017° W

METAR

BGGH 170050Z AUTO 10005KT 9999NDV BKN070/// BKN130/// M04/M11 Q0987

Decode

TAF

Not found

Departure Runways

ID Width Length Bearing (true) Bearing (mag) Surface Threshold Offset Overrun Length
05 98 ft / 30 m 3,113 ft / 949 m 18.44° 45.46° Asphalt 0 ft / 0 m 0 ft / 0 m
23 98 ft / 30 m 3,113 ft / 949 m 198.44° 225.46° Asphalt 0 ft / 0 m 0 ft / 0 m

CYFB

Details ICAO CYFB (YFB)
Name Iqaluit
Region Canada
Timezone America/Iqaluit (UTC-5.0)
Stats Elevation 110 ft / 34 m (AMSL)
Location 63.756565° -68.556058°
Runways 1
Magnetic Variation 27.540° W

METAR

CYFB 170100Z 33016KT 6SM -SN OVC039 M10/M12 A2928 RMK SN3SC5 SLP918

Decode

TAF

TAF CYFB 162338Z 1700/1724 33015KT P6SM SCT050 BKN100 TEMPO 1700/1702 6SM -SN BKN050 FM170200 33010KT P6SM -SN BKN030 OVC050 TEMPO 1702/1708 4SM -SN BLSN BKN020 FM170800 32015KT 4SM -SN BKN015 OVC030 TEMPO 1708/1715 2SM -SN BLSN VV015 PROB40 1713/1715 11/2SM -SN BLSN FM171500 32020G30KT 1SM -SN BLSN VV012 RMK NXT FCST BY 170600Z

Decode

Destination Runways

ID Width Length Bearing (true) Bearing (mag) Surface Threshold Offset Overrun Length
17 200 ft / 61 m 8,605 ft / 2,623 m 135.58° 163.12° Asphalt 0 ft / 0 m 210 ft / 64 m
35 200 ft / 61 m 8,605 ft / 2,623 m 315.62° 343.16° Asphalt 0 ft / 0 m 243 ft / 74 m

Popular Alternatives